This is the latest recevied weather packets stored in our database for station/object NR5ON-13. If no packets are shown the sender has not sent any weather packets the latest 1 day(s).
| Time | Temp. | Humidity | Pressure | Rain* | Wind** | Luminosity | Snow |
|---|---|---|---|---|---|---|---|
| 1778074717 | 3.89° C | 84% | 1016.7 hPa | 0 mm | - | - | - |
| 1778074426 | 3.89° C | 85% | 1016.6 hPa | 0 mm | - | - | - |
| 1778073523 | 3.33° C | 85% | 1016.5 hPa | 0 mm | - | - | - |
| 1778072619 | 3.33° C | 85% | 1016.3 hPa | 0 mm | - | - | - |
| 1778072010 | 3.33° C | 84% | 1016.4 hPa | 0 mm | - | - | - |
| 1778071718 | 3.33° C | 84% | 1016.3 hPa | 0 mm | - | - | - |
| 1778068405 | 2.22° C | 90% | 1015.7 hPa | 0 mm | - | - | - |
| 1778067818 | 2.22° C | 89% | 1015.6 hPa | 0 mm | - | - | - |
| 1778067212 | 2.78° C | 89% | 1015.6 hPa | 0 mm | - | - | - |
| 1778066917 | 2.78° C | 89% | 1015.4 hPa | 0 mm | - | - | - |
| 1778065708 | 2.22° C | 89% | 1015.3 hPa | 0 mm | - | - | - |
| 1778065119 | 2.78° C | 89% | 1015.5 hPa | 0.25 mm | - | - | - |
| 1778064509 | 2.78° C | 90% | 1015.4 hPa | 0.25 mm | - | - | - |
| 1778063015 | 2.78° C | 90% | 1015.4 hPa | 0.25 mm | - | - | - |
| 1778062720 | 2.78° C | 90% | 1015.5 hPa | 0.25 mm | - | - | - |
| 1778062410 | 2.78° C | 90% | 1015.4 hPa | 0.25 mm | - | - | - |
| 1778062115 | 2.78° C | 90% | 1015.5 hPa | 0.25 mm | - | - | - |
| 1778061821 | 2.78° C | 90% | 1015.4 hPa | 0 mm | - | - | - |
| 1778061526 | 3.33° C | 90% | 1015.5 hPa | 0 mm | - | - | - |
| 1778061210 | 3.33° C | 91% | 1015.5 hPa | 0 mm | - | - | - |
| 1778060917 | 3.33° C | 91% | 1015.4 hPa | 0 mm | - | - | - |
| 1778060622 | 3.33° C | 92% | 1015.5 hPa | 0 mm | - | - | - |
| 1778060308 | 3.33° C | 92% | 1015.4 hPa | 0 mm | - | - | - |
| 1778059719 | 2.78° C | 92% | 1015.4 hPa | 0 mm | - | - | - |
| 1778059408 | 3.33° C | 92% | 1015.4 hPa | 0 mm | - | - | - |
* Rain latest hour (hover to see other rain measurements)
** Current wind speed in m/s (hover to see current wind gust speed)